sensor_id;sensor_type;location;lat;lon;timestamp;pressure;altitude;pressure_sealevel;temperature
40968;BMP280;57377;45.130;6.038;2022-12-18T00:01:30;93264.72;;;3.18
40968;BMP280;57377;45.130;6.038;2022-12-18T00:03:57;93259.81;;;3.05
40968;BMP280;57377;45.130;6.038;2022-12-18T00:06:24;93272.34;;;3.13
40968;BMP280;57377;45.130;6.038;2022-12-18T00:08:49;93277.69;;;3.23
40968;BMP280;57377;45.130;6.038;2022-12-18T00:11:20;93283.25;;;3.43
40968;BMP280;57377;45.130;6.038;2022-12-18T00:13:47;93290.00;;;3.44
40968;BMP280;57377;45.130;6.038;2022-12-18T00:16:15;93294.69;;;3.01
40968;BMP280;57377;45.130;6.038;2022-12-18T00:18:42;93299.03;;;3.23
40968;BMP280;57377;45.130;6.038;2022-12-18T00:21:09;93304.53;;;3.16
40968;BMP280;57377;45.130;6.038;2022-12-18T00:23:36;93303.19;;;3.13
40968;BMP280;57377;45.130;6.038;2022-12-18T00:26:04;93299.94;;;3.06
40968;BMP280;57377;45.130;6.038;2022-12-18T00:28:30;93313.97;;;2.92
40968;BMP280;57377;45.130;6.038;2022-12-18T00:31:03;93309.13;;;3.36
40968;BMP280;57377;45.130;6.038;2022-12-18T00:33:29;93313.34;;;3.31
40968;BMP280;57377;45.130;6.038;2022-12-18T00:36:03;93317.13;;;2.94
40968;BMP280;57377;45.130;6.038;2022-12-18T00:38:29;93312.66;;;3.01
40968;BMP280;57377;45.130;6.038;2022-12-18T00:40:54;93313.16;;;2.58
40968;BMP280;57377;45.130;6.038;2022-12-18T00:43:20;93324.97;;;2.59
40968;BMP280;57377;45.130;6.038;2022-12-18T00:45:45;93318.53;;;2.68
40968;BMP280;57377;45.130;6.038;2022-12-18T00:48:11;93325.38;;;2.74
40968;BMP280;57377;45.130;6.038;2022-12-18T00:50:36;93320.38;;;3.01
40968;BMP280;57377;45.130;6.038;2022-12-18T00:53:01;93333.56;;;2.53
40968;BMP280;57377;45.130;6.038;2022-12-18T00:55:27;93337.44;;;2.44
40968;BMP280;57377;45.130;6.038;2022-12-18T00:57:52;93332.97;;;2.80
40968;BMP280;57377;45.130;6.038;2022-12-18T01:00:18;93329.75;;;2.85
40968;BMP280;57377;45.130;6.038;2022-12-18T01:02:43;93336.56;;;3.02
40968;BMP280;57377;45.130;6.038;2022-12-18T01:05:11;93338.38;;;3.01
40968;BMP280;57377;45.130;6.038;2022-12-18T01:07:37;93334.34;;;2.94
40968;BMP280;57377;45.130;6.038;2022-12-18T01:10:03;93344.00;;;2.81
40968;BMP280;57377;45.130;6.038;2022-12-18T01:12:28;93346.16;;;2.95
40968;BMP280;57377;45.130;6.038;2022-12-18T01:14:54;93345.59;;;2.82
40968;BMP280;57377;45.130;6.038;2022-12-18T01:17:19;93343.97;;;2.98
40968;BMP280;57377;45.130;6.038;2022-12-18T01:19:44;93351.06;;;2.85
40968;BMP280;57377;45.130;6.038;2022-12-18T01:22:10;93361.00;;;2.82
40968;BMP280;57377;45.130;6.038;2022-12-18T01:24:35;93347.38;;;2.81
40968;BMP280;57377;45.130;6.038;2022-12-18T01:27:01;93358.50;;;2.64
40968;BMP280;57377;45.130;6.038;2022-12-18T01:29:26;93364.19;;;2.66
40968;BMP280;57377;45.130;6.038;2022-12-18T01:31:55;93368.34;;;2.67
40968;BMP280;57377;45.130;6.038;2022-12-18T01:34:21;93364.03;;;2.90
40968;BMP280;57377;45.130;6.038;2022-12-18T01:36:46;93372.59;;;2.73
40968;BMP280;57377;45.130;6.038;2022-12-18T01:39:13;93365.09;;;3.00
40968;BMP280;57377;45.130;6.038;2022-12-18T01:41:39;93359.81;;;2.95
40968;BMP280;57377;45.130;6.038;2022-12-18T01:49:55;93366.63;;;2.61
40968;BMP280;57377;45.130;6.038;2022-12-18T01:52:24;93370.84;;;2.85
40968;BMP280;57377;45.130;6.038;2022-12-18T01:54:51;93371.84;;;2.84
40968;BMP280;57377;45.130;6.038;2022-12-18T01:57:17;93363.94;;;2.96
40968;BMP280;57377;45.130;6.038;2022-12-18T01:59:45;93373.63;;;2.83
40968;BMP280;57377;45.130;6.038;2022-12-18T02:02:12;93369.28;;;2.84
40968;BMP280;57377;45.130;6.038;2022-12-18T02:04:37;93375.13;;;2.32
40968;BMP280;57377;45.130;6.038;2022-12-18T02:07:08;93378.75;;;2.72
40968;BMP280;57377;45.130;6.038;2022-12-18T02:09:46;93375.09;;;2.50
40968;BMP280;57377;45.130;6.038;2022-12-18T02:12:22;93374.41;;;2.43
40968;BMP280;57377;45.130;6.038;2022-12-18T02:14:55;93375.19;;;2.44
40968;BMP280;57377;45.130;6.038;2022-12-18T02:20:25;93380.50;;;2.42
40968;BMP280;57377;45.130;6.038;2022-12-18T02:28:29;93383.28;;;2.58
40968;BMP280;57377;45.130;6.038;2022-12-18T02:30:58;93387.19;;;2.61
40968;BMP280;57377;45.130;6.038;2022-12-18T02:33:25;93393.41;;;2.54
40968;BMP280;57377;45.130;6.038;2022-12-18T02:35:53;93380.81;;;2.52
40968;BMP280;57377;45.130;6.038;2022-12-18T02:38:20;93386.59;;;2.88
40968;BMP280;57377;45.130;6.038;2022-12-18T02:40:46;93392.09;;;2.91
40968;BMP280;57377;45.130;6.038;2022-12-18T02:43:14;93379.69;;;2.88
40968;BMP280;57377;45.130;6.038;2022-12-18T02:46:25;93395.94;;;2.71
40968;BMP280;57377;45.130;6.038;2022-12-18T02:48:57;93396.28;;;2.75
40968;BMP280;57377;45.130;6.038;2022-12-18T02:51:32;93397.06;;;2.75
40968;BMP280;57377;45.130;6.038;2022-12-18T02:54:10;93394.38;;;2.70
40968;BMP280;57377;45.130;6.038;2022-12-18T02:56:49;93400.72;;;2.97
40968;BMP280;57377;45.130;6.038;2022-12-18T02:59:25;93399.22;;;2.89
40968;BMP280;57377;45.130;6.038;2022-12-18T03:02:17;93407.31;;;3.04
40968;BMP280;57377;45.130;6.038;2022-12-18T03:04:54;93402.94;;;3.05
40968;BMP280;57377;45.130;6.038;2022-12-18T03:07:28;93401.44;;;2.75
40968;BMP280;57377;45.130;6.038;2022-12-18T03:09:59;93402.16;;;2.93
40968;BMP280;57377;45.130;6.038;2022-12-18T03:12:32;93400.63;;;3.03
40968;BMP280;57377;45.130;6.038;2022-12-18T03:15:08;93400.50;;;3.10
40968;BMP280;57377;45.130;6.038;2022-12-18T03:17:36;93409.31;;;3.02
40968;BMP280;57377;45.130;6.038;2022-12-18T03:20:10;93401.50;;;2.68
40968;BMP280;57377;45.130;6.038;2022-12-18T03:22:38;93403.22;;;2.45
40968;BMP280;57377;45.130;6.038;2022-12-18T03:25:06;93411.94;;;2.26
40968;BMP280;57377;45.130;6.038;2022-12-18T03:27:33;93409.94;;;2.28
40968;BMP280;57377;45.130;6.038;2022-12-18T03:30:03;93406.44;;;2.23
40968;BMP280;57377;45.130;6.038;2022-12-18T03:35:11;93409.94;;;2.28
40968;BMP280;57377;45.130;6.038;2022-12-18T03:37:38;93411.38;;;2.24
40968;BMP280;57377;45.130;6.038;2022-12-18T03:40:04;93420.22;;;2.28
40968;BMP280;57377;45.130;6.038;2022-12-18T03:42:52;93418.91;;;2.37
40968;BMP280;57377;45.130;6.038;2022-12-18T03:45:26;93420.75;;;2.48
40968;BMP280;57377;45.130;6.038;2022-12-18T03:48:03;93416.75;;;2.52
40968;BMP280;57377;45.130;6.038;2022-12-18T03:53:22;93414.47;;;2.44
40968;BMP280;57377;45.130;6.038;2022-12-18T03:55:51;93422.75;;;2.46
40968;BMP280;57377;45.130;6.038;2022-12-18T03:58:20;93418.50;;;2.69
40968;BMP280;57377;45.130;6.038;2022-12-18T04:00:48;93414.53;;;2.85
40968;BMP280;57377;45.130;6.038;2022-12-18T04:03:16;93421.97;;;2.75
40968;BMP280;57377;45.130;6.038;2022-12-18T04:05:43;93422.75;;;2.46
40968;BMP280;57377;45.130;6.038;2022-12-18T04:08:09;93435.91;;;2.50
40968;BMP280;57377;45.130;6.038;2022-12-18T04:10:35;93428.97;;;2.68
40968;BMP280;57377;45.130;6.038;2022-12-18T04:13:01;93434.88;;;2.57
40968;BMP280;57377;45.130;6.038;2022-12-18T04:15:26;93441.69;;;2.63
40968;BMP280;57377;45.130;6.038;2022-12-18T04:17:52;93432.75;;;2.36
40968;BMP280;57377;45.130;6.038;2022-12-18T04:20:17;93441.03;;;2.38
40968;BMP280;57377;45.130;6.038;2022-12-18T04:22:43;93441.13;;;2.61
40968;BMP280;57377;45.130;6.038;2022-12-18T04:25:08;93432.47;;;2.73
40968;BMP280;57377;45.130;6.038;2022-12-18T04:27:34;93436.75;;;2.79
40968;BMP280;57377;45.130;6.038;2022-12-18T04:29:59;93435.28;;;2.83
40968;BMP280;57377;45.130;6.038;2022-12-18T04:32:25;93440.84;;;2.51
40968;BMP280;57377;45.130;6.038;2022-12-18T04:34:50;93443.25;;;2.64
40968;BMP280;57377;45.130;6.038;2022-12-18T04:37:16;93444.78;;;2.54
40968;BMP280;57377;45.130;6.038;2022-12-18T04:39:41;93447.00;;;2.32
40968;BMP280;57377;45.130;6.038;2022-12-18T04:42:06;93452.84;;;2.39
40968;BMP280;57377;45.130;6.038;2022-12-18T04:44:32;93453.00;;;2.26
40968;BMP280;57377;45.130;6.038;2022-12-18T04:46:57;93447.50;;;2.23
40968;BMP280;57377;45.130;6.038;2022-12-18T04:49:24;93449.00;;;2.48
40968;BMP280;57377;45.130;6.038;2022-12-18T04:51:50;93454.28;;;2.53
40968;BMP280;57377;45.130;6.038;2022-12-18T04:54:18;93456.19;;;2.57
40968;BMP280;57377;45.130;6.038;2022-12-18T04:56:44;93451.97;;;2.63
40968;BMP280;57377;45.130;6.038;2022-12-18T04:59:09;93457.34;;;2.44
40968;BMP280;57377;45.130;6.038;2022-12-18T05:01:35;93459.78;;;2.39
40968;BMP280;57377;45.130;6.038;2022-12-18T05:04:01;93459.47;;;2.47
40968;BMP280;57377;45.130;6.038;2022-12-18T05:06:26;93465.56;;;2.52
40968;BMP280;57377;45.130;6.038;2022-12-18T05:08:52;93469.78;;;2.76
40968;BMP280;57377;45.130;6.038;2022-12-18T05:11:17;93477.84;;;2.79
40968;BMP280;57377;45.130;6.038;2022-12-18T05:13:44;93477.59;;;2.69
40968;BMP280;57377;45.130;6.038;2022-12-18T05:16:13;93482.38;;;2.48
40968;BMP280;57377;45.130;6.038;2022-12-18T05:18:39;93477.94;;;2.73
40968;BMP280;57377;45.130;6.038;2022-12-18T05:21:06;93477.69;;;2.45
40968;BMP280;57377;45.130;6.038;2022-12-18T05:23:33;93486.09;;;2.52
40968;BMP280;57377;45.130;6.038;2022-12-18T05:26:02;93483.38;;;2.65
40968;BMP280;57377;45.130;6.038;2022-12-18T05:28:33;93478.31;;;2.58
40968;BMP280;57377;45.130;6.038;2022-12-18T05:31:05;93482.88;;;2.56
40968;BMP280;57377;45.130;6.038;2022-12-18T05:33:33;93493.50;;;2.24
40968;BMP280;57377;45.130;6.038;2022-12-18T05:36:07;93491.75;;;2.43
40968;BMP280;57377;45.130;6.038;2022-12-18T05:38:36;93487.94;;;2.63
40968;BMP280;57377;45.130;6.038;2022-12-18T05:41:04;93490.78;;;2.37
40968;BMP280;57377;45.130;6.038;2022-12-18T05:43:29;93492.16;;;2.57
40968;BMP280;57377;45.130;6.038;2022-12-18T05:46:03;93493.06;;;2.10
40968;BMP280;57377;45.130;6.038;2022-12-18T05:48:29;93504.97;;;2.40
40968;BMP280;57377;45.130;6.038;2022-12-18T05:50:55;93500.22;;;2.43
40968;BMP280;57377;45.130;6.038;2022-12-18T05:53:20;93500.06;;;2.56
40968;BMP280;57377;45.130;6.038;2022-12-18T05:55:46;93504.31;;;2.80
40968;BMP280;57377;45.130;6.038;2022-12-18T05:58:13;93507.19;;;2.54
40968;BMP280;57377;45.130;6.038;2022-12-18T06:00:41;93505.06;;;2.51
40968;BMP280;57377;45.130;6.038;2022-12-18T06:03:08;93511.19;;;2.32
40968;BMP280;57377;45.130;6.038;2022-12-18T06:05:37;93516.41;;;2.44
40968;BMP280;57377;45.130;6.038;2022-12-18T06:08:03;93508.28;;;2.64
40968;BMP280;57377;45.130;6.038;2022-12-18T06:10:31;93513.03;;;2.61
40968;BMP280;57377;45.130;6.038;2022-12-18T06:13:02;93515.31;;;2.69
40968;BMP280;57377;45.130;6.038;2022-12-18T06:15:36;93520.66;;;2.50
40968;BMP280;57377;45.130;6.038;2022-12-18T06:18:05;93524.09;;;2.44
40968;BMP280;57377;45.130;6.038;2022-12-18T06:20:37;93520.31;;;2.46
40968;BMP280;57377;45.130;6.038;2022-12-18T06:23:07;93523.47;;;2.48
40968;BMP280;57377;45.130;6.038;2022-12-18T06:25:33;93520.31;;;2.46
40968;BMP280;57377;45.130;6.038;2022-12-18T06:28:25;93521.97;;;2.41
40968;BMP280;57377;45.130;6.038;2022-12-18T06:31:05;93534.41;;;2.02
40968;BMP280;57377;45.130;6.038;2022-12-18T06:33:42;93532.88;;;2.36
40968;BMP280;57377;45.130;6.038;2022-12-18T06:36:21;93532.53;;;2.33
40968;BMP280;57377;45.130;6.038;2022-12-18T06:38:55;93539.66;;;2.49
40968;BMP280;57377;45.130;6.038;2022-12-18T06:41:40;93542.75;;;2.15
40968;BMP280;57377;45.130;6.038;2022-12-18T06:44:14;93539.78;;;1.94
40968;BMP280;57377;45.130;6.038;2022-12-18T06:51:18;93554.28;;;2.48
40968;BMP280;57377;45.130;6.038;2022-12-18T06:56:57;93560.81;;;2.26
40968;BMP280;57377;45.130;6.038;2022-12-18T06:59:48;93562.69;;;2.37
40968;BMP280;57377;45.130;6.038;2022-12-18T07:02:14;93573.19;;;2.54
40968;BMP280;57377;45.130;6.038;2022-12-18T07:04:44;93574.97;;;2.71
40968;BMP280;57377;45.130;6.038;2022-12-18T07:07:33;93580.06;;;2.59
40968;BMP280;57377;45.130;6.038;2022-12-18T07:10:01;93586.13;;;2.65
40968;BMP280;57377;45.130;6.038;2022-12-18T07:12:31;93583.91;;;2.68
40968;BMP280;57377;45.130;6.038;2022-12-18T07:15:01;93596.47;;;2.76
40968;BMP280;57377;45.130;6.038;2022-12-18T07:17:29;93600.75;;;2.64
40968;BMP280;57377;45.130;6.038;2022-12-18T07:20:05;93607.25;;;2.67
40968;BMP280;57377;45.130;6.038;2022-12-18T07:22:31;93616.59;;;2.37
40968;BMP280;57377;45.130;6.038;2022-12-18T07:24:58;93606.09;;;2.63
40968;BMP280;57377;45.130;6.038;2022-12-18T07:27:24;93611.22;;;2.63
40968;BMP280;57377;45.130;6.038;2022-12-18T07:30:23;93621.66;;;2.68
40968;BMP280;57377;45.130;6.038;2022-12-18T07:33:38;93613.16;;;2.67
40968;BMP280;57377;45.130;6.038;2022-12-18T07:36:52;93621.78;;;2.73
40968;BMP280;57377;45.130;6.038;2022-12-18T07:39:59;93624.66;;;2.83
40968;BMP280;57377;45.130;6.038;2022-12-18T07:49:10;93642.41;;;2.24
40968;BMP280;57377;45.130;6.038;2022-12-18T07:51:35;93643.91;;;2.32
40968;BMP280;57377;45.130;6.038;2022-12-18T07:54:03;93641.53;;;2.30
40968;BMP280;57377;45.130;6.038;2022-12-18T07:56:33;93641.59;;;2.48
40968;BMP280;57377;45.130;6.038;2022-12-18T07:59:05;93644.44;;;2.40
40968;BMP280;57377;45.130;6.038;2022-12-18T08:02:04;93653.03;;;2.52
40968;BMP280;57377;45.130;6.038;2022-12-18T08:04:40;93644.28;;;2.59
40968;BMP280;57377;45.130;6.038;2022-12-18T08:07:20;93655.09;;;2.61
40968;BMP280;57377;45.130;6.038;2022-12-18T08:10:14;93665.28;;;2.50
40968;BMP280;57377;45.130;6.038;2022-12-18T08:13:09;93655.03;;;2.50
40968;BMP280;57377;45.130;6.038;2022-12-18T08:16:16;93663.50;;;2.26
40968;BMP280;57377;45.130;6.038;2022-12-18T08:37:40;93659.06;;;2.99
40968;BMP280;57377;45.130;6.038;2022-12-18T08:40:46;93655.53;;;3.00
40968;BMP280;57377;45.130;6.038;2022-12-18T08:43:56;93655.34;;;2.78
40968;BMP280;57377;45.130;6.038;2022-12-18T08:47:12;93646.31;;;2.69
40968;BMP280;57377;45.130;6.038;2022-12-18T10:20:45;93645.84;;;3.78
40968;BMP280;57377;45.130;6.038;2022-12-18T10:32:45;93632.22;;;4.52
40968;BMP280;57377;45.130;6.038;2022-12-18T10:36:18;93621.97;;;5.25
40968;BMP280;57377;45.130;6.038;2022-12-18T10:39:45;93613.81;;;6.10
40968;BMP280;57377;45.130;6.038;2022-12-18T10:43:24;93610.69;;;7.11
40968;BMP280;57377;45.130;6.038;2022-12-18T10:46:17;93598.16;;;8.14
40968;BMP280;57377;45.130;6.038;2022-12-18T10:48:55;93594.88;;;8.90
40968;BMP280;57377;45.130;6.038;2022-12-18T10:51:33;93594.72;;;9.62
40968;BMP280;57377;45.130;6.038;2022-12-18T10:54:06;93589.22;;;10.34
40968;BMP280;57377;45.130;6.038;2022-12-18T10:56:36;93573.81;;;11.01
40968;BMP280;57377;45.130;6.038;2022-12-18T10:59:05;93574.97;;;11.63
40968;BMP280;57377;45.130;6.038;2022-12-18T11:01:53;93576.00;;;11.72
40968;BMP280;57377;45.130;6.038;2022-12-18T11:04:30;93571.19;;;12.31
40968;BMP280;57377;45.130;6.038;2022-12-18T11:09:24;93564.47;;;13.47
40968;BMP280;57377;45.130;6.038;2022-12-18T11:11:51;93565.31;;;13.84
40968;BMP280;57377;45.130;6.038;2022-12-18T11:14:26;62490.00;;;-135.21
40968;BMP280;57377;45.130;6.038;2022-12-18T11:16:53;62490.00;;;-135.21
40968;BMP280;57377;45.130;6.038;2022-12-18T11:21:45;62490.00;;;-135.21
40968;BMP280;57377;45.130;6.038;2022-12-18T11:24:34;62490.00;;;-135.21
40968;BMP280;57377;45.130;6.038;2022-12-18T11:27:02;62490.00;;;-135.21
40968;BMP280;57377;45.130;6.038;2022-12-18T11:29:39;62490.00;;;-135.21
40968;BMP280;57377;45.130;6.038;2022-12-18T11:32:36;62490.00;;;-135.21
40968;BMP280;57377;45.130;6.038;2022-12-18T11:37:43;62490.00;;;-135.21
40968;BMP280;57377;45.130;6.038;2022-12-18T11:40:17;62490.00;;;-135.21
40968;BMP280;57377;45.130;6.038;2022-12-18T11:42:48;62490.00;;;-135.21
40968;BMP280;57377;45.130;6.038;2022-12-18T11:45:52;62490.00;;;-135.21
40968;BMP280;57377;45.130;6.038;2022-12-18T11:48:25;62490.00;;;-135.21
40968;BMP280;57377;45.130;6.038;2022-12-18T11:50:54;62490.00;;;-135.21
40968;BMP280;57377;45.130;6.038;2022-12-18T11:53:20;62490.00;;;-135.21
40968;BMP280;57377;45.130;6.038;2022-12-18T11:56:14;62490.00;;;-135.21
40968;BMP280;57377;45.130;6.038;2022-12-18T12:07:21;62490.00;;;-135.21
40968;BMP280;57377;45.130;6.038;2022-12-18T12:12:27;62490.00;;;-135.21
40968;BMP280;57377;45.130;6.038;2022-12-18T12:15:20;62490.00;;;-135.21
40968;BMP280;57377;45.130;6.038;2022-12-18T12:23:43;62490.00;;;-135.21
40968;BMP280;57377;45.130;6.038;2022-12-18T12:26:23;62490.00;;;-135.21
40968;BMP280;57377;45.130;6.038;2022-12-18T12:32:12;62490.00;;;-135.21
40968;BMP280;57377;45.130;6.038;2022-12-18T12:40:27;62490.00;;;-135.21
40968;BMP280;57377;45.130;6.038;2022-12-18T12:42:58;62490.00;;;-135.21
40968;BMP280;57377;45.130;6.038;2022-12-18T12:45:45;62490.00;;;-135.21
40968;BMP280;57377;45.130;6.038;2022-12-18T12:48:19;62490.00;;;-135.21
40968;BMP280;57377;45.130;6.038;2022-12-18T12:50:46;62490.00;;;-135.21
40968;BMP280;57377;45.130;6.038;2022-12-18T12:53:21;62490.00;;;-135.21
40968;BMP280;57377;45.130;6.038;2022-12-18T12:55:47;62490.00;;;-135.21
40968;BMP280;57377;45.130;6.038;2022-12-18T12:58:19;62490.00;;;-135.21
40968;BMP280;57377;45.130;6.038;2022-12-18T13:00:57;62490.00;;;-135.21
40968;BMP280;57377;45.130;6.038;2022-12-18T13:03:33;62490.00;;;-135.21
40968;BMP280;57377;45.130;6.038;2022-12-18T13:08:59;62490.00;;;-135.21
40968;BMP280;57377;45.130;6.038;2022-12-18T13:11:35;62490.00;;;-135.21
40968;BMP280;57377;45.130;6.038;2022-12-18T13:14:26;62490.00;;;-135.21
40968;BMP280;57377;45.130;6.038;2022-12-18T13:19:44;62490.00;;;-135.21
40968;BMP280;57377;45.130;6.038;2022-12-18T13:22:24;62490.00;;;-135.21
40968;BMP280;57377;45.130;6.038;2022-12-18T13:24:50;62490.00;;;-135.21
40968;BMP280;57377;45.130;6.038;2022-12-18T13:36:13;62490.00;;;-135.21
40968;BMP280;57377;45.130;6.038;2022-12-18T13:38:39;62490.00;;;-135.21
40968;BMP280;57377;45.130;6.038;2022-12-18T13:46:05;62490.00;;;-135.21
40968;BMP280;57377;45.130;6.038;2022-12-18T13:48:36;62490.00;;;-135.21
40968;BMP280;57377;45.130;6.038;2022-12-18T13:51:08;62490.00;;;-135.21
40968;BMP280;57377;45.130;6.038;2022-12-18T13:53:44;62490.00;;;-135.21
40968;BMP280;57377;45.130;6.038;2022-12-18T13:56:23;62490.00;;;-135.21
40968;BMP280;57377;45.130;6.038;2022-12-18T14:01:48;62490.00;;;-135.21
40968;BMP280;57377;45.130;6.038;2022-12-18T14:04:21;62490.00;;;-135.21
40968;BMP280;57377;45.130;6.038;2022-12-18T14:06:47;62490.00;;;-135.21
40968;BMP280;57377;45.130;6.038;2022-12-18T14:09:26;62490.00;;;-135.21
40968;BMP280;57377;45.130;6.038;2022-12-18T14:11:53;62490.00;;;-135.21
40968;BMP280;57377;45.130;6.038;2022-12-18T14:14:42;62490.00;;;-135.21
40968;BMP280;57377;45.130;6.038;2022-12-18T14:17:10;62490.00;;;-135.21
40968;BMP280;57377;45.130;6.038;2022-12-18T14:19:36;62490.00;;;-135.21
40968;BMP280;57377;45.130;6.038;2022-12-18T14:22:01;62490.00;;;-135.21
40968;BMP280;57377;45.130;6.038;2022-12-18T14:24:27;62490.00;;;-135.21
40968;BMP280;57377;45.130;6.038;2022-12-18T14:26:53;62490.00;;;-135.21
40968;BMP280;57377;45.130;6.038;2022-12-18T14:29:22;62490.00;;;-135.21
40968;BMP280;57377;45.130;6.038;2022-12-18T14:32:10;62490.00;;;-135.21
40968;BMP280;57377;45.130;6.038;2022-12-18T14:34:36;62490.00;;;-135.21
40968;BMP280;57377;45.130;6.038;2022-12-18T14:37:01;62490.00;;;-135.21
40968;BMP280;57377;45.130;6.038;2022-12-18T14:39:27;62490.00;;;-135.21
40968;BMP280;57377;45.130;6.038;2022-12-18T14:41:52;62490.00;;;-135.21
40968;BMP280;57377;45.130;6.038;2022-12-18T14:44:18;62490.00;;;-135.21
40968;BMP280;57377;45.130;6.038;2022-12-18T14:46:44;62490.00;;;-135.21
40968;BMP280;57377;45.130;6.038;2022-12-18T14:52:01;62490.00;;;-135.21
40968;BMP280;57377;45.130;6.038;2022-12-18T14:54:28;62490.00;;;-135.21
40968;BMP280;57377;45.130;6.038;2022-12-18T14:59:24;62490.00;;;-135.21
40968;BMP280;57377;45.130;6.038;2022-12-18T15:04:37;62490.00;;;-135.21
40968;BMP280;57377;45.130;6.038;2022-12-18T15:09:36;62490.00;;;-135.21
40968;BMP280;57377;45.130;6.038;2022-12-18T15:12:02;62490.00;;;-135.21
40968;BMP280;57377;45.130;6.038;2022-12-18T15:16:58;62490.00;;;-135.21
40968;BMP280;57377;45.130;6.038;2022-12-18T15:19:42;62490.00;;;-135.21
40968;BMP280;57377;45.130;6.038;2022-12-18T15:22:27;62490.00;;;-135.21
40968;BMP280;57377;45.130;6.038;2022-12-18T15:24:55;62490.00;;;-135.21
40968;BMP280;57377;45.130;6.038;2022-12-18T15:30:16;62490.00;;;-135.21
40968;BMP280;57377;45.130;6.038;2022-12-18T15:32:43;62490.00;;;-135.21
40968;BMP280;57377;45.130;6.038;2022-12-18T15:35:23;62490.00;;;-135.21
40968;BMP280;57377;45.130;6.038;2022-12-18T15:37:50;62490.00;;;-135.21
40968;BMP280;57377;45.130;6.038;2022-12-18T15:40:18;62490.00;;;-135.21
40968;BMP280;57377;45.130;6.038;2022-12-18T15:42:44;62490.00;;;-135.21
40968;BMP280;57377;45.130;6.038;2022-12-18T15:45:28;62490.00;;;-135.21
40968;BMP280;57377;45.130;6.038;2022-12-18T15:47:54;62490.00;;;-135.21
40968;BMP280;57377;45.130;6.038;2022-12-18T15:50:19;62490.00;;;-135.21
40968;BMP280;57377;45.130;6.038;2022-12-18T15:52:46;62490.00;;;-135.21
40968;BMP280;57377;45.130;6.038;2022-12-18T15:55:18;62490.00;;;-135.21
40968;BMP280;57377;45.130;6.038;2022-12-18T15:58:03;62490.00;;;-135.21
40968;BMP280;57377;45.130;6.038;2022-12-18T16:00:29;62490.00;;;-135.21
40968;BMP280;57377;45.130;6.038;2022-12-18T16:02:55;62490.00;;;-135.21
40968;BMP280;57377;45.130;6.038;2022-12-18T16:05:21;62490.00;;;-135.21
40968;BMP280;57377;45.130;6.038;2022-12-18T16:07:47;62490.00;;;-135.21
40968;BMP280;57377;45.130;6.038;2022-12-18T16:10:12;62490.00;;;-135.21
40968;BMP280;57377;45.130;6.038;2022-12-18T16:12:38;62490.00;;;-135.21
40968;BMP280;57377;45.130;6.038;2022-12-18T16:15:05;62490.00;;;-135.21
40968;BMP280;57377;45.130;6.038;2022-12-18T16:17:31;62490.00;;;-135.21
40968;BMP280;57377;45.130;6.038;2022-12-18T16:19:56;62490.00;;;-135.21
40968;BMP280;57377;45.130;6.038;2022-12-18T16:22:24;62490.00;;;-135.21
40968;BMP280;57377;45.130;6.038;2022-12-18T16:24:51;62490.00;;;-135.21
40968;BMP280;57377;45.130;6.038;2022-12-18T16:27:17;62490.00;;;-135.21
40968;BMP280;57377;45.130;6.038;2022-12-18T16:29:43;62490.00;;;-135.21
40968;BMP280;57377;45.130;6.038;2022-12-18T16:32:13;62490.00;;;-135.21
40968;BMP280;57377;45.130;6.038;2022-12-18T16:34:39;62490.00;;;-135.21
40968;BMP280;57377;45.130;6.038;2022-12-18T16:37:06;62490.00;;;-135.21
40968;BMP280;57377;45.130;6.038;2022-12-18T16:39:37;62490.00;;;-135.21
40968;BMP280;57377;45.130;6.038;2022-12-18T16:42:23;62490.00;;;-135.21
40968;BMP280;57377;45.130;6.038;2022-12-18T16:44:49;62490.00;;;-135.21
40968;BMP280;57377;45.130;6.038;2022-12-18T16:47:15;62490.00;;;-135.21
40968;BMP280;57377;45.130;6.038;2022-12-18T16:49:41;62490.00;;;-135.21
40968;BMP280;57377;45.130;6.038;2022-12-18T16:52:07;62490.00;;;-135.21
40968;BMP280;57377;45.130;6.038;2022-12-18T16:54:32;62490.00;;;-135.21
40968;BMP280;57377;45.130;6.038;2022-12-18T16:56:59;62490.00;;;-135.21
40968;BMP280;57377;45.130;6.038;2022-12-18T16:59:25;62490.00;;;-135.21
40968;BMP280;57377;45.130;6.038;2022-12-18T17:01:51;62490.00;;;-135.21
40968;BMP280;57377;45.130;6.038;2022-12-18T17:04:17;62490.00;;;-135.21
40968;BMP280;57377;45.130;6.038;2022-12-18T17:06:44;62490.00;;;-135.21
40968;BMP280;57377;45.130;6.038;2022-12-18T17:09:12;62490.00;;;-135.21
40968;BMP280;57377;45.130;6.038;2022-12-18T17:11:41;62490.00;;;-135.21
40968;BMP280;57377;45.130;6.038;2022-12-18T17:14:09;62490.00;;;-135.21
40968;BMP280;57377;45.130;6.038;2022-12-18T17:16:36;62490.00;;;-135.21
40968;BMP280;57377;45.130;6.038;2022-12-18T17:19:02;62490.00;;;-135.21
40968;BMP280;57377;45.130;6.038;2022-12-18T17:21:27;62490.00;;;-135.21
40968;BMP280;57377;45.130;6.038;2022-12-18T17:23:53;62490.00;;;-135.21
40968;BMP280;57377;45.130;6.038;2022-12-18T17:26:18;62490.00;;;-135.21
40968;BMP280;57377;45.130;6.038;2022-12-18T17:28:44;62490.00;;;-135.21
40968;BMP280;57377;45.130;6.038;2022-12-18T17:31:17;62490.00;;;-135.21
40968;BMP280;57377;45.130;6.038;2022-12-18T17:33:43;62490.00;;;-135.21
40968;BMP280;57377;45.130;6.038;2022-12-18T17:36:09;62490.00;;;-135.21
40968;BMP280;57377;45.130;6.038;2022-12-18T17:38:35;62490.00;;;-135.21
40968;BMP280;57377;45.130;6.038;2022-12-18T17:41:02;62490.00;;;-135.21
40968;BMP280;57377;45.130;6.038;2022-12-18T17:43:28;62490.00;;;-135.21
40968;BMP280;57377;45.130;6.038;2022-12-18T17:45:54;62490.00;;;-135.21
40968;BMP280;57377;45.130;6.038;2022-12-18T17:48:19;62490.00;;;-135.21
40968;BMP280;57377;45.130;6.038;2022-12-18T17:50:44;62490.00;;;-135.21
40968;BMP280;57377;45.130;6.038;2022-12-18T17:53:10;62490.00;;;-135.21
40968;BMP280;57377;45.130;6.038;2022-12-18T17:55:35;62490.00;;;-135.21
40968;BMP280;57377;45.130;6.038;2022-12-18T17:58:01;62490.00;;;-135.21
40968;BMP280;57377;45.130;6.038;2022-12-18T18:00:26;62490.00;;;-135.21
40968;BMP280;57377;45.130;6.038;2022-12-18T18:02:52;62490.00;;;-135.21
40968;BMP280;57377;45.130;6.038;2022-12-18T18:05:17;62490.00;;;-135.21
40968;BMP280;57377;45.130;6.038;2022-12-18T18:07:42;62490.00;;;-135.21
40968;BMP280;57377;45.130;6.038;2022-12-18T18:10:08;62490.00;;;-135.21
40968;BMP280;57377;45.130;6.038;2022-12-18T18:12:35;62490.00;;;-135.21
40968;BMP280;57377;45.130;6.038;2022-12-18T18:15:19;62490.00;;;-135.21
40968;BMP280;57377;45.130;6.038;2022-12-18T18:17:45;62490.00;;;-135.21